sensor_id;sensor_type;location;lat;lon;timestamp;pressure;altitude;pressure_sealevel;temperature;humidity
8637;BME280;4356;49.068;8.658;2023-10-13T00:01:01;99921.88;;;23.56;42.86
8637;BME280;4356;49.068;8.658;2023-10-13T00:03:30;99920.50;;;23.53;43.06
8637;BME280;4356;49.068;8.658;2023-10-13T00:06:00;99919.16;;;23.56;42.96
8637;BME280;4356;49.068;8.658;2023-10-13T00:08:29;99914.75;;;23.55;42.83
8637;BME280;4356;49.068;8.658;2023-10-13T00:10:54;99909.22;;;23.50;43.11
8637;BME280;4356;49.068;8.658;2023-10-13T00:13:26;99909.53;;;23.53;43.01
8637;BME280;4356;49.068;8.658;2023-10-13T00:15:52;99894.59;;;23.44;43.18
8637;BME280;4356;49.068;8.658;2023-10-13T00:18:30;99907.84;;;23.52;43.07
8637;BME280;4356;49.068;8.658;2023-10-13T00:21:02;99907.28;;;23.50;43.20
8637;BME280;4356;49.068;8.658;2023-10-13T00:23:44;99908.13;;;23.51;43.06
8637;BME280;4356;49.068;8.658;2023-10-13T00:28:49;99905.63;;;23.49;43.09
8637;BME280;4356;49.068;8.658;2023-10-13T00:31:24;99898.47;;;23.48;43.00
8637;BME280;4356;49.068;8.658;2023-10-13T00:33:51;99905.38;;;23.51;43.03
8637;BME280;4356;49.068;8.658;2023-10-13T00:36:21;99902.38;;;23.52;43.00
8637;BME280;4356;49.068;8.658;2023-10-13T00:38:46;99902.63;;;23.51;42.80
8637;BME280;4356;49.068;8.658;2023-10-13T00:41:17;99898.47;;;23.48;42.82
8637;BME280;4356;49.068;8.658;2023-10-13T00:43:58;99902.06;;;23.48;42.87
8637;BME280;4356;49.068;8.658;2023-10-13T00:46:34;99896.31;;;23.50;42.99
8637;BME280;4356;49.068;8.658;2023-10-13T00:49:03;99901.22;;;23.48;42.68
8637;BME280;4356;49.068;8.658;2023-10-13T00:51:33;99896.81;;;23.47;42.76
8637;BME280;4356;49.068;8.658;2023-10-13T00:54:06;99900.41;;;23.48;42.40
8637;BME280;4356;49.068;8.658;2023-10-13T00:56:42;99899.25;;;23.43;42.92
8637;BME280;4356;49.068;8.658;2023-10-13T00:59:29;99902.56;;;23.45;42.86
8637;BME280;4356;49.068;8.658;2023-10-13T01:01:59;99892.13;;;23.42;42.79
8637;BME280;4356;49.068;8.658;2023-10-13T01:04:45;99894.03;;;23.42;42.85
8637;BME280;4356;49.068;8.658;2023-10-13T01:07:12;99892.59;;;23.39;42.78
8637;BME280;4356;49.068;8.658;2023-10-13T01:09:43;99884.13;;;23.41;42.93
8637;BME280;4356;49.068;8.658;2023-10-13T01:12:08;99886.28;;;23.39;42.95
8637;BME280;4356;49.068;8.658;2023-10-13T01:14:34;99889.38;;;23.42;42.79
8637;BME280;4356;49.068;8.658;2023-10-13T01:17:01;99895.09;;;23.41;43.14
8637;BME280;4356;49.068;8.658;2023-10-13T01:19:26;99881.06;;;23.37;42.94
8637;BME280;4356;49.068;8.658;2023-10-13T01:21:53;99864.81;;;23.31;42.82
8637;BME280;4356;49.068;8.658;2023-10-13T01:24:32;99886.28;;;23.39;43.01
8637;BME280;4356;49.068;8.658;2023-10-13T01:27:00;99870.34;;;23.36;42.93
8637;BME280;4356;49.068;8.658;2023-10-13T01:29:35;99866.53;;;23.37;42.73
8637;BME280;4356;49.068;8.658;2023-10-13T01:32:00;99871.44;;;23.35;42.97
8637;BME280;4356;49.068;8.658;2023-10-13T01:34:26;99857.72;;;23.35;42.85
8637;BME280;4356;49.068;8.658;2023-10-13T01:36:52;99862.97;;;23.36;43.04
8637;BME280;4356;49.068;8.658;2023-10-13T01:39:23;99858.06;;;23.38;42.86
8637;BME280;4356;49.068;8.658;2023-10-13T01:41:55;99859.13;;;23.37;42.95
8637;BME280;4356;49.068;8.658;2023-10-13T01:44:21;99860.47;;;23.35;42.82
8637;BME280;4356;49.068;8.658;2023-10-13T01:46:47;99858.53;;;23.35;43.15
8637;BME280;4356;49.068;8.658;2023-10-13T01:49:13;99858.53;;;23.35;42.93
8637;BME280;4356;49.068;8.658;2023-10-13T01:51:40;99845.63;;;23.31;42.98
8637;BME280;4356;49.068;8.658;2023-10-13T01:54:06;99855.25;;;23.33;42.81
8637;BME280;4356;49.068;8.658;2023-10-13T01:56:36;99850.25;;;23.30;43.03
8637;BME280;4356;49.068;8.658;2023-10-13T01:59:07;99847.84;;;23.34;42.86
8637;BME280;4356;49.068;8.658;2023-10-13T02:01:34;99838.22;;;23.31;42.95
8637;BME280;4356;49.068;8.658;2023-10-13T02:04:01;99836.53;;;23.30;42.80
8637;BME280;4356;49.068;8.658;2023-10-13T02:06:36;99826.06;;;23.27;42.84
8637;BME280;4356;49.068;8.658;2023-10-13T02:09:03;99827.47;;;23.30;42.97
8637;BME280;4356;49.068;8.658;2023-10-13T02:11:51;99831.31;;;23.29;42.94
8637;BME280;4356;49.068;8.658;2023-10-13T02:14:22;99823.09;;;23.29;42.93
8637;BME280;4356;49.068;8.658;2023-10-13T02:16:49;99824.16;;;23.28;42.87
8637;BME280;4356;49.068;8.658;2023-10-13T02:19:16;99824.97;;;23.28;42.80
8637;BME280;4356;49.068;8.658;2023-10-13T02:21:44;99820.59;;;23.27;43.06
8637;BME280;4356;49.068;8.658;2023-10-13T02:24:11;99816.75;;;23.28;43.00
8637;BME280;4356;49.068;8.658;2023-10-13T02:26:44;99812.03;;;23.24;42.79
8637;BME280;4356;49.068;8.658;2023-10-13T02:29:09;99817.25;;;23.25;43.02
8637;BME280;4356;49.068;8.658;2023-10-13T02:31:40;99815.34;;;23.26;42.80
8637;BME280;4356;49.068;8.658;2023-10-13T02:34:06;99809.03;;;23.25;42.89
8637;BME280;4356;49.068;8.658;2023-10-13T02:36:38;99802.66;;;23.20;42.96
8637;BME280;4356;49.068;8.658;2023-10-13T02:39:17;99803.25;;;23.22;42.96
8637;BME280;4356;49.068;8.658;2023-10-13T02:41:49;99803.81;;;23.24;42.79
8637;BME280;4356;49.068;8.658;2023-10-13T02:44:15;99792.53;;;23.20;42.96
8637;BME280;4356;49.068;8.658;2023-10-13T02:46:56;99795.28;;;23.20;42.94
8637;BME280;4356;49.068;8.658;2023-10-13T02:49:26;99782.31;;;23.16;42.78
8637;BME280;4356;49.068;8.658;2023-10-13T02:51:54;99785.63;;;23.18;42.95
8637;BME280;4356;49.068;8.658;2023-10-13T02:54:25;99793.28;;;23.16;42.78
8637;BME280;4356;49.068;8.658;2023-10-13T02:56:55;99796.59;;;23.18;42.92
8637;BME280;4356;49.068;8.658;2023-10-13T02:59:30;99786.41;;;23.13;43.07
8637;BME280;4356;49.068;8.658;2023-10-13T03:02:21;99797.69;;;23.17;42.95
8637;BME280;4356;49.068;8.658;2023-10-13T03:07:16;99791.06;;;23.13;42.88
8637;BME280;4356;49.068;8.658;2023-10-13T03:09:49;99784.47;;;23.14;42.98
8637;BME280;4356;49.068;8.658;2023-10-13T03:12:17;99793.53;;;23.14;42.91
8637;BME280;4356;49.068;8.658;2023-10-13T03:14:43;99790.22;;;23.12;42.91
8637;BME280;4356;49.068;8.658;2023-10-13T03:17:28;99792.13;;;23.12;43.07
8637;BME280;4356;49.068;8.658;2023-10-13T03:19:59;99792.38;;;23.10;43.00
8637;BME280;4356;49.068;8.658;2023-10-13T03:22:25;99791.31;;;23.11;43.05
8637;BME280;4356;49.068;8.658;2023-10-13T03:24:57;99789.66;;;23.10;43.00
8637;BME280;4356;49.068;8.658;2023-10-13T03:27:38;99776.47;;;23.07;42.94
8637;BME280;4356;49.068;8.658;2023-10-13T03:30:27;99786.31;;;23.08;43.14
8637;BME280;4356;49.068;8.658;2023-10-13T03:33:12;99786.31;;;23.08;43.01
8637;BME280;4356;49.068;8.658;2023-10-13T03:35:39;99785.75;;;23.06;43.16
8637;BME280;4356;49.068;8.658;2023-10-13T03:38:09;99787.41;;;23.07;43.14
8637;BME280;4356;49.068;8.658;2023-10-13T03:40:49;99783.25;;;23.05;43.16
8637;BME280;4356;49.068;8.658;2023-10-13T03:43:21;99775.03;;;23.05;43.04
8637;BME280;4356;49.068;8.658;2023-10-13T03:45:50;99776.72;;;23.06;43.14
8637;BME280;4356;49.068;8.658;2023-10-13T03:48:26;99780.78;;;23.03;43.11
8637;BME280;4356;49.068;8.658;2023-10-13T03:50:57;99762.88;;;22.96;43.09
8637;BME280;4356;49.068;8.658;2023-10-13T03:53:32;99785.19;;;23.04;42.94
8637;BME280;4356;49.068;8.658;2023-10-13T03:56:05;99762.06;;;22.95;43.02
8637;BME280;4356;49.068;8.658;2023-10-13T03:58:36;99756.75;;;22.89;43.01
8637;BME280;4356;49.068;8.658;2023-10-13T04:01:04;99783.78;;;23.02;43.06
8637;BME280;4356;49.068;8.658;2023-10-13T04:03:30;99773.09;;;23.00;42.93
8637;BME280;4356;49.068;8.658;2023-10-13T04:06:01;99770.59;;;22.99;43.03
8637;BME280;4356;49.068;8.658;2023-10-13T04:08:32;99769.50;;;23.00;43.07
8637;BME280;4356;49.068;8.658;2023-10-13T04:11:13;99762.06;;;22.95;43.18
8637;BME280;4356;49.068;8.658;2023-10-13T04:13:56;99764.28;;;22.98;43.01
8637;BME280;4356;49.068;8.658;2023-10-13T04:16:40;99752.75;;;22.96;43.01
8637;BME280;4356;49.068;8.658;2023-10-13T04:19:19;99751.09;;;22.95;42.93
8637;BME280;4356;49.068;8.658;2023-10-13T04:21:48;99748.59;;;22.94;43.05
8637;BME280;4356;49.068;8.658;2023-10-13T04:24:39;99743.09;;;22.94;42.84
8637;BME280;4356;49.068;8.658;2023-10-13T04:27:16;99745.84;;;22.94;42.97
8637;BME280;4356;49.068;8.658;2023-10-13T04:30:04;99747.22;;;22.91;42.97
8637;BME280;4356;49.068;8.658;2023-10-13T04:32:32;99733.50;;;22.91;42.86
8637;BME280;4356;49.068;8.658;2023-10-13T04:35:04;99744.47;;;22.91;43.27
8637;BME280;4356;49.068;8.658;2023-10-13T04:37:43;99733.50;;;22.91;43.06
8637;BME280;4356;49.068;8.658;2023-10-13T04:40:26;99723.59;;;22.90;43.08
8637;BME280;4356;49.068;8.658;2023-10-13T04:42:53;99731.25;;;22.88;43.22
8637;BME280;4356;49.068;8.658;2023-10-13T04:45:21;99731.25;;;22.88;43.18
8637;BME280;4356;49.068;8.658;2023-10-13T04:47:56;99715.28;;;22.80;43.25
8637;BME280;4356;49.068;8.658;2023-10-13T04:50:45;99732.94;;;22.89;43.23
8637;BME280;4356;49.068;8.658;2023-10-13T04:53:15;99722.72;;;22.85;43.04
8637;BME280;4356;49.068;8.658;2023-10-13T04:55:58;99724.38;;;22.86;43.13
8637;BME280;4356;49.068;8.658;2023-10-13T04:58:42;99716.69;;;22.83;43.21
8637;BME280;4356;49.068;8.658;2023-10-13T05:01:26;99708.47;;;22.83;43.11
8637;BME280;4356;49.068;8.658;2023-10-13T05:03:51;99710.13;;;22.84;43.06
8637;BME280;4356;49.068;8.658;2023-10-13T05:06:35;99712.84;;;22.84;43.01
8637;BME280;4356;49.068;8.658;2023-10-13T05:09:07;99717.75;;;22.82;43.08
8637;BME280;4356;49.068;8.658;2023-10-13T05:11:51;99714.19;;;22.81;43.14
8637;BME280;4356;49.068;8.658;2023-10-13T05:14:35;99720.75;;;22.80;43.26
8637;BME280;4356;49.068;8.658;2023-10-13T05:17:19;99694.09;;;22.76;43.17
8637;BME280;4356;49.068;8.658;2023-10-13T05:20:03;99706.75;;;22.77;43.09
8637;BME280;4356;49.068;8.658;2023-10-13T05:22:47;99712.47;;;22.75;43.13
8637;BME280;4356;49.068;8.658;2023-10-13T05:25:35;99719.03;;;22.74;43.30
8637;BME280;4356;49.068;8.658;2023-10-13T05:28:19;99718.69;;;22.71;42.99
8637;BME280;4356;49.068;8.658;2023-10-13T05:31:03;99715.66;;;22.67;43.20
8637;BME280;4356;49.068;8.658;2023-10-13T05:33:47;99715.31;;;22.64;43.21
8637;BME280;4356;49.068;8.658;2023-10-13T05:36:31;99717.75;;;22.60;43.25
8637;BME280;4356;49.068;8.658;2023-10-13T05:39:15;99720.75;;;22.59;43.29
8637;BME280;4356;49.068;8.658;2023-10-13T05:41:59;99715.78;;;22.56;43.21
8637;BME280;4356;49.068;8.658;2023-10-13T05:44:43;99717.91;;;22.54;43.36
8637;BME280;4356;49.068;8.658;2023-10-13T05:47:27;99720.53;;;22.48;43.44
8637;BME280;4356;49.068;8.658;2023-10-13T05:50:12;99723.28;;;22.48;43.31
8637;BME280;4356;49.068;8.658;2023-10-13T05:52:54;99713.34;;;22.42;43.50
8637;BME280;4356;49.068;8.658;2023-10-13T05:55:19;99720.16;;;22.40;43.33
8637;BME280;4356;49.068;8.658;2023-10-13T05:58:03;99717.69;;;22.38;43.33
8637;BME280;4356;49.068;8.658;2023-10-13T06:00:47;99714.34;;;22.36;43.44
8637;BME280;4356;49.068;8.658;2023-10-13T06:03:31;99707.47;;;22.34;43.57
8637;BME280;4356;49.068;8.658;2023-10-13T06:06:15;99714.03;;;22.33;43.59
8637;BME280;4356;49.068;8.658;2023-10-13T06:08:59;99702.00;;;22.34;43.55
8637;BME280;4356;49.068;8.658;2023-10-13T06:11:43;99713.19;;;22.32;43.38
8637;BME280;4356;49.068;8.658;2023-10-13T06:14:27;99710.47;;;22.32;43.41
8637;BME280;4356;49.068;8.658;2023-10-13T06:17:12;99710.47;;;22.32;43.42
8637;BME280;4356;49.068;8.658;2023-10-13T06:19:56;99707.72;;;22.32;43.53
8637;BME280;4356;49.068;8.658;2023-10-13T06:22:40;99711.56;;;22.31;43.22
8637;BME280;4356;49.068;8.658;2023-10-13T06:25:24;99711.28;;;22.33;43.41
8637;BME280;4356;49.068;8.658;2023-10-13T06:28:11;99717.88;;;22.32;43.30
8637;BME280;4356;49.068;8.658;2023-10-13T06:30:58;99708.56;;;22.33;43.43
8637;BME280;4356;49.068;8.658;2023-10-13T06:33:24;99708.81;;;22.31;43.49
8637;BME280;4356;49.068;8.658;2023-10-13T06:35:55;99706.34;;;22.30;43.36
8637;BME280;4356;49.068;8.658;2023-10-13T06:38:22;99712.38;;;22.32;43.55
8637;BME280;4356;49.068;8.658;2023-10-13T06:40:47;99718.66;;;22.32;43.60
8637;BME280;4356;49.068;8.658;2023-10-13T06:43:15;99712.94;;;22.34;43.52
8637;BME280;4356;49.068;8.658;2023-10-13T06:45:47;99716.25;;;22.36;43.58
8637;BME280;4356;49.068;8.658;2023-10-13T06:48:32;99706.41;;;22.35;43.51
8637;BME280;4356;49.068;8.658;2023-10-13T06:51:05;99697.53;;;22.28;43.54
8637;BME280;4356;49.068;8.658;2023-10-13T06:53:52;99721.72;;;22.36;43.56
8637;BME280;4356;49.068;8.658;2023-10-13T06:56:22;99711.63;;;22.36;43.53
8637;BME280;4356;49.068;8.658;2023-10-13T06:58:53;99697.53;;;22.28;43.48
8637;BME280;4356;49.068;8.658;2023-10-13T07:01:29;99708.03;;;22.36;43.62
8637;BME280;4356;49.068;8.658;2023-10-13T07:03:56;99710.53;;;22.37;43.75
8637;BME280;4356;49.068;8.658;2023-10-13T07:06:42;99709.47;;;22.38;43.38
8637;BME280;4356;49.068;8.658;2023-10-13T07:09:14;99702.56;;;22.36;43.61
8637;BME280;4356;49.068;8.658;2023-10-13T07:11:59;99708.88;;;22.36;43.44
8637;BME280;4356;49.068;8.658;2023-10-13T07:14:45;99706.16;;;22.36;43.59
8637;BME280;4356;49.068;8.658;2023-10-13T07:17:17;99711.09;;;22.39;43.67
8637;BME280;4356;49.068;8.658;2023-10-13T07:19:50;99711.09;;;22.39;43.66
8637;BME280;4356;49.068;8.658;2023-10-13T07:22:19;99711.94;;;22.40;43.69
8637;BME280;4356;49.068;8.658;2023-10-13T07:24:45;99714.44;;;22.41;43.70
8637;BME280;4356;49.068;8.658;2023-10-13T07:27:17;99710.88;;;22.41;43.82
8637;BME280;4356;49.068;8.658;2023-10-13T07:29:53;99693.78;;;22.34;43.70
8637;BME280;4356;49.068;8.658;2023-10-13T07:32:41;99700.25;;;22.44;43.59
8637;BME280;4356;49.068;8.658;2023-10-13T07:35:15;99706.03;;;22.48;43.52
8637;BME280;4356;49.068;8.658;2023-10-13T07:37:43;99701.38;;;22.48;43.62
8637;BME280;4356;49.068;8.658;2023-10-13T07:40:08;99700.31;;;22.49;43.55
8637;BME280;4356;49.068;8.658;2023-10-13T07:42:55;99701.69;;;22.52;43.57
8637;BME280;4356;49.068;8.658;2023-10-13T07:45:29;99677.75;;;22.42;43.49
8637;BME280;4356;49.068;8.658;2023-10-13T07:50:37;99686.38;;;22.51;43.51
8637;BME280;4356;49.068;8.658;2023-10-13T07:53:03;99688.00;;;22.52;43.30
8637;BME280;4356;49.068;8.658;2023-10-13T07:55:44;99689.69;;;22.53;43.67
8637;BME280;4356;49.068;8.658;2023-10-13T07:58:10;99690.94;;;22.62;43.36
8637;BME280;4356;49.068;8.658;2023-10-13T08:00:37;99696.97;;;22.64;43.51
8637;BME280;4356;49.068;8.658;2023-10-13T08:03:08;99692.88;;;22.67;43.59
8637;BME280;4356;49.068;8.658;2023-10-13T08:05:51;99687.72;;;22.70;43.54
8637;BME280;4356;49.068;8.658;2023-10-13T08:08:52;99674.88;;;22.71;43.44
8637;BME280;4356;49.068;8.658;2023-10-13T08:11:32;99688.88;;;22.74;43.52
8637;BME280;4356;49.068;8.658;2023-10-13T08:14:04;99692.53;;;22.80;43.54
8637;BME280;4356;49.068;8.658;2023-10-13T08:16:41;99684.88;;;22.82;43.41
8637;BME280;4356;49.068;8.658;2023-10-13T08:19:19;99688.19;;;22.84;43.31
8637;BME280;4356;49.068;8.658;2023-10-13T08:21:46;99677.50;;;22.82;43.28
8637;BME280;4356;49.068;8.658;2023-10-13T08:24:17;99677.53;;;22.87;43.37
8637;BME280;4356;49.068;8.658;2023-10-13T08:26:50;99686.97;;;22.96;43.44
8637;BME280;4356;49.068;8.658;2023-10-13T08:29:34;99685.13;;;23.02;43.34
8637;BME280;4356;49.068;8.658;2023-10-13T08:32:18;99680.25;;;23.09;43.07
8637;BME280;4356;49.068;8.658;2023-10-13T08:34:58;99677.88;;;23.17;43.08
8637;BME280;4356;49.068;8.658;2023-10-13T08:37:34;99679.91;;;23.27;42.92
8637;BME280;4356;49.068;8.658;2023-10-13T08:40:13;99675.38;;;23.37;43.37
8637;BME280;4356;49.068;8.658;2023-10-13T08:42:57;99670.28;;;23.46;42.79
8637;BME280;4356;49.068;8.658;2023-10-13T08:45:30;99660.19;;;23.52;42.70
8637;BME280;4356;49.068;8.658;2023-10-13T08:47:59;99662.44;;;23.60;42.67
8637;BME280;4356;49.068;8.658;2023-10-13T08:50:44;99657.81;;;23.65;42.22
8637;BME280;4356;49.068;8.658;2023-10-13T08:53:34;99659.78;;;23.70;42.50
8637;BME280;4356;49.068;8.658;2023-10-13T08:56:10;99666.13;;;23.75;42.14
8637;BME280;4356;49.068;8.658;2023-10-13T08:58:54;99671.09;;;23.78;41.79
8637;BME280;4356;49.068;8.658;2023-10-13T09:01:29;99666.75;;;23.82;41.89
8637;BME280;4356;49.068;8.658;2023-10-13T09:04:14;99664.50;;;23.79;41.78
8637;BME280;4356;49.068;8.658;2023-10-13T09:06:53;99659.03;;;23.79;41.94
8637;BME280;4356;49.068;8.658;2023-10-13T09:09:26;99666.69;;;23.77;41.87
8637;BME280;4356;49.068;8.658;2023-10-13T09:12:18;99659.00;;;23.74;41.79
8637;BME280;4356;49.068;8.658;2023-10-13T09:14:54;99659.84;;;23.75;41.94
8637;BME280;4356;49.068;8.658;2023-10-13T09:17:27;99653.50;;;23.74;41.84
8637;BME280;4356;49.068;8.658;2023-10-13T09:20:09;99655.69;;;23.72;41.87
8637;BME280;4356;49.068;8.658;2023-10-13T09:22:54;99660.34;;;23.72;41.97
8637;BME280;4356;49.068;8.658;2023-10-13T09:25:29;99646.06;;;23.70;42.35
8637;BME280;4356;49.068;8.658;2023-10-13T09:28:11;99652.94;;;23.72;42.52
8637;BME280;4356;49.068;8.658;2023-10-13T09:30:47;99643.09;;;23.76;42.56
8637;BME280;4356;49.068;8.658;2023-10-13T09:33:13;99634.91;;;23.81;42.24
8637;BME280;4356;49.068;8.658;2023-10-13T09:35:44;99633.59;;;23.89;42.06
8637;BME280;4356;49.068;8.658;2023-10-13T09:38:16;99638.06;;;24.00;41.82
8637;BME280;4356;49.068;8.658;2023-10-13T09:40:43;99627.97;;;24.05;41.46
8637;BME280;4356;49.068;8.658;2023-10-13T09:43:18;99629.69;;;24.16;41.24
8637;BME280;4356;49.068;8.658;2023-10-13T09:45:48;99627.81;;;24.22;41.26
8637;BME280;4356;49.068;8.658;2023-10-13T09:48:37;99621.00;;;24.29;41.19
8637;BME280;4356;49.068;8.658;2023-10-13T09:51:12;99622.91;;;24.34;40.93
8637;BME280;4356;49.068;8.658;2023-10-13T09:53:38;99617.72;;;24.37;40.89
8637;BME280;4356;49.068;8.658;2023-10-13T09:56:15;99612.25;;;24.42;40.90
8637;BME280;4356;49.068;8.658;2023-10-13T09:58:54;99610.63;;;24.52;40.77
8637;BME280;4356;49.068;8.658;2023-10-13T10:01:24;99612.59;;;24.56;40.43
8637;BME280;4356;49.068;8.658;2023-10-13T10:04:10;99601.88;;;24.60;40.16
8637;BME280;4356;49.068;8.658;2023-10-13T10:06:57;99618.41;;;24.70;40.26
8637;BME280;4356;49.068;8.658;2023-10-13T10:09:27;99606.66;;;24.74;40.05
8637;BME280;4356;49.068;8.658;2023-10-13T10:14:59;99606.13;;;24.87;40.18
8637;BME280;4356;49.068;8.658;2023-10-13T10:17:43;99590.22;;;24.89;40.13
8637;BME280;4356;49.068;8.658;2023-10-13T10:20:09;99592.69;;;24.96;39.85
8637;BME280;4356;49.068;8.658;2023-10-13T10:22:55;99602.59;;;25.02;39.78
8637;BME280;4356;49.068;8.658;2023-10-13T10:25:29;99597.66;;;25.09;39.25
8637;BME280;4356;49.068;8.658;2023-10-13T10:28:01;99589.69;;;25.12;39.12
8637;BME280;4356;49.068;8.658;2023-10-13T10:30:31;99586.66;;;25.19;39.03
8637;BME280;4356;49.068;8.658;2023-10-13T10:32:59;99581.72;;;25.21;38.99
8637;BME280;4356;49.068;8.658;2023-10-13T10:35:26;99572.66;;;25.25;38.84
8637;BME280;4356;49.068;8.658;2023-10-13T10:37:56;99556.44;;;25.29;38.84
8637;BME280;4356;49.068;8.658;2023-10-13T10:40:48;99558.63;;;25.32;38.71
8637;BME280;4356;49.068;8.658;2023-10-13T10:43:16;99560.88;;;25.40;38.73
8637;BME280;4356;49.068;8.658;2023-10-13T10:45:46;99555.88;;;25.42;38.37
8637;BME280;4356;49.068;8.658;2023-10-13T10:48:14;99556.72;;;25.48;38.41
8637;BME280;4356;49.068;8.658;2023-10-13T10:50:54;99550.69;;;25.51;38.42
8637;BME280;4356;49.068;8.658;2023-10-13T10:53:23;99542.16;;;25.52;38.10
8637;BME280;4356;49.068;8.658;2023-10-13T10:56:04;99543.25;;;25.61;38.16
8637;BME280;4356;49.068;8.658;2023-10-13T10:58:36;99540.47;;;25.66;37.77
8637;BME280;4356;49.068;8.658;2023-10-13T11:01:09;99545.16;;;25.71;37.54
8637;BME280;4356;49.068;8.658;2023-10-13T11:03:59;99546.22;;;25.75;37.15
8637;BME280;4356;49.068;8.658;2023-10-13T11:06:28;99543.50;;;25.80;37.05
8637;BME280;4356;49.068;8.658;2023-10-13T11:09:09;99542.06;;;25.87;37.00
8637;BME280;4356;49.068;8.658;2023-10-13T11:12:15;99545.63;;;25.93;36.87
8637;BME280;4356;49.068;8.658;2023-10-13T11:14:45;99546.75;;;25.97;36.61
8637;BME280;4356;49.068;8.658;2023-10-13T11:17:21;99537.66;;;26.01;36.39
8637;BME280;4356;49.068;8.658;2023-10-13T11:19:52;99534.91;;;26.06;36.25
8637;BME280;4356;49.068;8.658;2023-10-13T11:22:20;99521.94;;;26.12;35.73
8637;BME280;4356;49.068;8.658;2023-10-13T11:24:58;99516.69;;;26.15;36.28
8637;BME280;4356;49.068;8.658;2023-10-13T11:27:31;99508.97;;;26.17;36.80
8637;BME280;4356;49.068;8.658;2023-10-13T11:30:22;99510.06;;;26.21;36.50
8637;BME280;4356;49.068;8.658;2023-10-13T11:33:11;99503.16;;;26.24;36.32
8637;BME280;4356;49.068;8.658;2023-10-13T11:35:43;99508.38;;;26.25;35.79
8637;BME280;4356;49.068;8.658;2023-10-13T11:38:25;99488.56;;;26.28;35.69
8637;BME280;4356;49.068;8.658;2023-10-13T11:43:27;99488.78;;;26.37;35.87
8637;BME280;4356;49.068;8.658;2023-10-13T11:45:52;99478.03;;;26.35;35.79
8637;BME280;4356;49.068;8.658;2023-10-13T11:48:21;99480.22;;;26.38;35.98
8637;BME280;4356;49.068;8.658;2023-10-13T11:51:02;99494.50;;;26.45;35.70
8637;BME280;4356;49.068;8.658;2023-10-13T11:53:34;99470.56;;;26.41;36.17
8637;BME280;4356;49.068;8.658;2023-10-13T11:56:01;99470.81;;;26.44;35.80
8637;BME280;4356;49.068;8.658;2023-10-13T11:58:26;99464.75;;;26.48;36.17
8637;BME280;4356;49.068;8.658;2023-10-13T12:00:54;99470.78;;;26.50;36.23
8637;BME280;4356;49.068;8.658;2023-10-13T12:03:32;99456.72;;;26.51;35.80
8637;BME280;4356;49.068;8.658;2023-10-13T12:06:16;99459.72;;;26.55;35.93
8637;BME280;4356;49.068;8.658;2023-10-13T12:08:58;99450.13;;;26.52;36.22
8637;BME280;4356;49.068;8.658;2023-10-13T12:11:36;99443.44;;;26.58;36.26
8637;BME280;4356;49.068;8.658;2023-10-13T12:14:04;99447.91;;;26.54;35.75
8637;BME280;4356;49.068;8.658;2023-10-13T12:16:42;99440.97;;;26.57;36.50
8637;BME280;4356;49.068;8.658;2023-10-13T12:19:07;99442.09;;;26.56;36.17
8637;BME280;4356;49.068;8.658;2023-10-13T12:21:36;99434.63;;;26.56;36.49
8637;BME280;4356;49.068;8.658;2023-10-13T12:24:03;99431.88;;;26.56;36.48
8637;BME280;4356;49.068;8.658;2023-10-13T12:26:28;99426.38;;;26.56;35.83
8637;BME280;4356;49.068;8.658;2023-10-13T12:29:00;99429.97;;;26.57;35.98
8637;BME280;4356;49.068;8.658;2023-10-13T12:31:34;99429.91;;;26.62;35.67
8637;BME280;4356;49.068;8.658;2023-10-13T12:34:04;99428.53;;;26.64;35.33
8637;BME280;4356;49.068;8.658;2023-10-13T12:36:39;99423.84;;;26.70;35.20
8637;BME280;4356;49.068;8.658;2023-10-13T12:39:18;99419.94;;;26.76;34.69
8637;BME280;4356;49.068;8.658;2023-10-13T12:42:07;99408.03;;;26.80;33.72
8637;BME280;4356;49.068;8.658;2023-10-13T12:44:50;99412.69;;;26.85;33.92
8637;BME280;4356;49.068;8.658;2023-10-13T12:47:34;99406.59;;;26.88;33.43
8637;BME280;4356;49.068;8.658;2023-10-13T12:50:18;99409.84;;;26.95;33.00
8637;BME280;4356;49.068;8.658;2023-10-13T12:52:59;99394.66;;;26.97;33.36
8637;BME280;4356;49.068;8.658;2023-10-13T12:55:25;99397.66;;;27.01;33.04
8637;BME280;4356;49.068;8.658;2023-10-13T12:57:50;99398.19;;;27.03;33.27
8637;BME280;4356;49.068;8.658;2023-10-13T13:00:16;99397.91;;;27.04;33.22
8637;BME280;4356;49.068;8.658;2023-10-13T13:02:44;99406.72;;;27.06;33.64
8637;BME280;4356;49.068;8.658;2023-10-13T13:05:10;99394.56;;;27.07;33.32
8637;BME280;4356;49.068;8.658;2023-10-13T13:07:39;99394.25;;;27.09;33.08
8637;BME280;4356;49.068;8.658;2023-10-13T13:10:18;99382.44;;;27.08;33.36
8637;BME280;4356;49.068;8.658;2023-10-13T13:12:43;99382.38;;;27.13;33.18
8637;BME280;4356;49.068;8.658;2023-10-13T13:15:09;99374.91;;;27.14;33.20
8637;BME280;4356;49.068;8.658;2023-10-13T13:17:37;99382.31;;;27.18;32.39
8637;BME280;4356;49.068;8.658;2023-10-13T13:20:08;99380.63;;;27.22;32.41
8637;BME280;4356;49.068;8.658;2023-10-13T13:22:39;99372.56;;;27.26;32.19
8637;BME280;4356;49.068;8.658;2023-10-13T13:25:06;99364.84;;;27.28;32.54
8637;BME280;4356;49.068;8.658;2023-10-13T13:27:36;99369.78;;;27.31;32.86
8637;BME280;4356;49.068;8.658;2023-10-13T13:30:07;99356.53;;;27.33;32.71
8637;BME280;4356;49.068;8.658;2023-10-13T13:32:38;99358.91;;;27.39;32.64
8637;BME280;4356;49.068;8.658;2023-10-13T13:35:06;99353.94;;;27.41;32.13
8637;BME280;4356;49.068;8.658;2023-10-13T13:37:33;99338.75;;;27.44;32.45
8637;BME280;4356;49.068;8.658;2023-10-13T13:39:59;99344.78;;;27.46;32.13
8637;BME280;4356;49.068;8.658;2023-10-13T13:42:47;99328.81;;;27.43;32.31
8637;BME280;4356;49.068;8.658;2023-10-13T13:45:13;99333.44;;;27.48;32.43
8637;BME280;4356;49.068;8.658;2023-10-13T13:47:52;99323.00;;;27.45;32.41
8637;BME280;4356;49.068;8.658;2023-10-13T13:50:25;99321.00;;;27.50;31.85
8637;BME280;4356;49.068;8.658;2023-10-13T13:52:53;99319.88;;;27.51;31.71
8637;BME280;4356;49.068;8.658;2023-10-13T13:55:22;99315.50;;;27.50;31.51
8637;BME280;4356;49.068;8.658;2023-10-13T13:57:48;99306.63;;;27.53;31.68
8637;BME280;4356;49.068;8.658;2023-10-13T14:00:18;99306.63;;;27.53;31.63
8637;BME280;4356;49.068;8.658;2023-10-13T14:03:08;99309.91;;;27.55;31.66
8637;BME280;4356;49.068;8.658;2023-10-13T14:05:41;99307.66;;;27.57;31.45
8637;BME280;4356;49.068;8.658;2023-10-13T14:08:07;99307.66;;;27.57;31.81
8637;BME280;4356;49.068;8.658;2023-10-13T14:10:38;99304.59;;;27.59;31.45
8637;BME280;4356;49.068;8.658;2023-10-13T14:13:23;99297.66;;;27.61;31.73
8637;BME280;4356;49.068;8.658;2023-10-13T14:16:08;99302.91;;;27.63;31.68